Enumclaw, Washington
Current Conditions -  °F | °C
As of 4:53 AM on Thursday 23 Oct 2014 (Local Time) from KSEA Reporting Station
Overcast Overcast  
Wind Chill: 52°   Ceiling: 5000
Heat Index: 52°   Visibility: 10mi
Dew Point: 48°   Wind: 7mph
Humidity: 86%   Direction: 190°S
Pressure: 29.72"   Gusts: NA
Location:  47.2°N, 121.99°W
Report Text: KSEA 231153Z 19006KT 10SM FEW040 BKN050 OVC110 11/09 A2972 RMK AO2 RAB06E51 SLP070 P0001 60009 70117 T01110089 10139 20111 57009
Loading
Personal Weather Stations






























Interactive Weather Map
Tropical Storm Tracking
New forecast layout! Learn more

10-Day Weather Forecast

Advertisements
Track Severe Weather on mobile